Time;durP1;ratioP1;P1;durP2;ratioP2;P2;SDS_P1;SDS_P2;PMS_P1;PMS_P2;Temp;Humidity;BMP_temperature;BMP_pressure;BME280_temperature;BME280_humidity;BME280_pressure;Samples;Min_cycle;Max_cycle;Signal;HPM_P1;HPM_P2
2023/06/17 00:01:01;;;;;;;0.10;0.10;;;17.40;99.90;;;;;;5046517;28;20186;-81
2023/06/17 00:03:27;;;;;;;0.10;0.10;;;17.20;99.90;;;;;;5044184;28;20740;-81
2023/06/17 00:05:52;;;;;;;0.10;0.10;;;17.10;99.90;;;;;;5043455;28;20205;-81
2023/06/17 00:08:18;;;;;;;0.10;0.10;;;17.00;99.90;;;;;;5045049;28;20701;-81
2023/06/17 00:10:44;;;;;;;0.10;0.10;;;17.00;99.90;;;;;;5043797;28;20554;-81
2023/06/17 00:13:10;;;;;;;0.10;0.10;;;16.90;99.90;;;;;;5044268;28;20190;-81
2023/06/17 00:15:36;;;;;;;0.10;0.10;;;16.80;99.90;;;;;;5043555;28;20191;-82
2023/06/17 00:18:03;;;;;;;0.10;0.10;;;16.80;99.90;;;;;;5042696;28;20240;-81
2023/06/17 00:20:29;;;;;;;0.10;0.10;;;16.80;99.90;;;;;;5044741;28;20185;-81
2023/06/17 00:22:55;;;;;;;0.10;0.10;;;16.90;99.90;;;;;;5042026;28;20205;-82
2023/06/17 00:25:20;;;;;;;0.40;0.40;;;16.80;99.90;;;;;;5043408;28;20192;-81
2023/06/17 00:27:46;;;;;;;0.10;0.10;;;16.80;99.90;;;;;;5042983;28;20214;-82
2023/06/17 00:30:12;;;;;;;0.10;0.10;;;16.80;99.90;;;;;;5043161;28;20189;-81
2023/06/17 00:32:38;;;;;;;0.10;0.10;;;16.80;99.90;;;;;;5042961;28;20577;-82
2023/06/17 00:35:05;;;;;;;0.10;0.10;;;16.80;99.90;;;;;;5042164;28;20281;-82
2023/06/17 00:37:32;;;;;;;0.10;0.10;;;16.80;99.90;;;;;;5044805;28;20190;-82
2023/06/17 00:39:57;;;;;;;0.10;0.10;;;16.90;99.90;;;;;;5041872;28;20271;-81
2023/06/17 00:42:23;;;;;;;0.10;0.10;;;16.90;99.90;;;;;;5042817;28;21024;-81
2023/06/17 00:44:49;;;;;;;0.10;0.10;;;17.10;99.90;;;;;;5043693;28;20201;-81
2023/06/17 00:47:15;;;;;;;0.10;0.10;;;17.10;99.90;;;;;;5045155;28;20208;-81
2023/06/17 00:49:43;;;;;;;0.10;0.10;;;17.20;99.90;;;;;;5042531;28;20308;-82
2023/06/17 00:52:11;;;;;;;0.10;0.10;;;17.20;99.90;;;;;;5044532;28;20189;-81
2023/06/17 00:54:38;;;;;;;0.10;0.10;;;17.20;99.90;;;;;;5041321;28;20678;-82
2023/06/17 00:57:07;;;;;;;0.10;0.10;;;17.20;99.90;;;;;;5040193;28;20189;-82
2023/06/17 00:59:35;;;;;;;0.10;0.10;;;17.00;99.90;;;;;;5042208;28;20579;-82
2023/06/17 01:02:01;;;;;;;0.10;0.10;;;17.00;99.90;;;;;;5041281;28;20185;-81
2023/06/17 01:04:28;;;;;;;0.10;0.10;;;16.90;99.90;;;;;;5043482;28;20551;-81
2023/06/17 01:07:05;;;;;;;0.10;0.10;;;16.90;99.90;;;;;;5044313;28;21228;-82
2023/06/17 01:09:38;;;;;;;0.10;0.10;;;16.90;99.90;;;;;;5041976;28;20267;-81
2023/06/17 01:12:07;;;;;;;0.10;0.10;;;16.90;99.90;;;;;;5041008;28;20552;-81
2023/06/17 01:14:34;;;;;;;0.10;0.10;;;17.00;99.90;;;;;;5051428;28;20195;-81
2023/06/17 01:17:03;;;;;;;0.10;0.10;;;17.10;99.90;;;;;;5042643;28;20189;-82
2023/06/17 01:19:29;;;;;;;0.10;0.10;;;17.20;99.90;;;;;;5044218;28;20300;-81
2023/06/17 01:21:56;;;;;;;0.10;0.10;;;17.30;99.90;;;;;;5041331;28;20186;-81
2023/06/17 01:24:29;;;;;;;0.10;0.10;;;17.40;99.90;;;;;;5039133;28;20209;-81
2023/06/17 01:26:57;;;;;;;0.10;0.10;;;17.40;99.90;;;;;;5042592;28;20353;-81
2023/06/17 01:29:29;;;;;;;0.10;0.10;;;17.40;99.90;;;;;;5041220;28;20221;-81
2023/06/17 01:31:58;;;;;;;0.10;0.10;;;17.50;99.90;;;;;;5042435;28;20418;-81
2023/06/17 01:34:51;;;;;;;0.10;0.10;;;17.50;99.90;;;;;;5041075;28;20197;-81
2023/06/17 01:37:27;;;;;;;0.10;0.10;;;17.50;99.90;;;;;;5044450;28;20185;-81
2023/06/17 01:39:56;;;;;;;0.10;0.10;;;17.50;99.90;;;;;;5042863;28;20296;-81
2023/06/17 01:42:31;;;;;;;0.10;0.10;;;17.50;99.90;;;;;;5041453;28;20190;-81
2023/06/17 01:44:59;;;;;;;0.10;0.10;;;17.50;99.90;;;;;;5043489;28;20227;-82
2023/06/17 01:47:24;;;;;;;0.10;0.10;;;17.50;99.90;;;;;;5041729;28;20549;-82
2023/06/17 01:49:50;;;;;;;0.10;0.10;;;17.50;99.90;;;;;;5043291;28;20679;-81
2023/06/17 01:52:15;;;;;;;0.10;0.10;;;17.50;99.90;;;;;;5040855;28;20185;-81
2023/06/17 01:54:41;;;;;;;0.10;0.10;;;17.50;99.90;;;;;;5039766;28;20527;-82
2023/06/17 01:57:07;;;;;;;0.10;0.10;;;17.30;99.90;;;;;;5041482;28;20221;-81
2023/06/17 01:59:33;;;;;;;0.10;0.10;;;17.00;99.90;;;;;;5042187;28;20201;-81
2023/06/17 02:01:58;;;;;;;0.10;0.10;;;17.10;99.90;;;;;;5041426;28;20192;-81
2023/06/17 02:04:24;;;;;;;0.10;0.10;;;17.10;99.90;;;;;;5042060;28;20249;-82
2023/06/17 02:06:51;;;;;;;0.10;0.10;;;17.10;99.90;;;;;;5042523;28;20276;-81
2023/06/17 02:09:17;;;;;;;0.10;0.10;;;17.10;99.90;;;;;;5040684;28;20206;-81
2023/06/17 02:11:43;;;;;;;0.10;0.10;;;16.90;99.90;;;;;;5040167;28;20193;-81
2023/06/17 02:14:08;;;;;;;0.10;0.10;;;17.00;99.90;;;;;;5040734;28;20650;-81
2023/06/17 02:16:42;;;;;;;0.10;0.10;;;16.90;99.90;;;;;;5050445;28;21007;-82
2023/06/17 02:19:08;;;;;;;0.10;0.10;;;16.80;99.90;;;;;;5044070;28;20276;-81
2023/06/17 02:21:33;;;;;;;0.10;0.10;;;16.70;99.90;;;;;;5050816;28;20619;-81
2023/06/17 02:23:59;;;;;;;0.10;0.10;;;16.80;99.90;;;;;;5040708;28;20696;-81
2023/06/17 02:26:24;;;;;;;0.10;0.10;;;16.90;99.90;;;;;;5038802;28;20186;-81
2023/06/17 02:28:50;;;;;;;0.10;0.10;;;16.90;99.90;;;;;;5039962;28;20209;-81
2023/06/17 02:31:15;;;;;;;0.10;0.10;;;16.90;99.90;;;;;;5043519;28;20227;-81
2023/06/17 02:33:41;;;;;;;0.10;0.10;;;16.90;99.90;;;;;;5039852;28;20193;-81
2023/06/17 02:36:06;;;;;;;0.10;0.10;;;17.00;99.90;;;;;;5042383;28;20204;-81
2023/06/17 02:38:32;;;;;;;0.10;0.10;;;17.00;99.90;;;;;;5039276;28;20240;-82
2023/06/17 02:40:58;;;;;;;0.10;0.10;;;17.00;99.90;;;;;;5040039;28;20549;-81
2023/06/17 02:43:24;;;;;;;0.10;0.10;;;17.00;99.90;;;;;;5040302;28;20640;-81
2023/06/17 02:45:49;;;;;;;0.10;0.10;;;17.00;99.90;;;;;;5041099;28;20177;-81
2023/06/17 02:48:15;;;;;;;0.10;0.10;;;17.00;99.90;;;;;;5040093;28;20209;-81
2023/06/17 02:50:41;;;;;;;0.10;0.10;;;17.00;99.90;;;;;;5040090;28;20265;-81
2023/06/17 02:53:07;;;;;;;0.10;0.10;;;17.00;99.90;;;;;;5040261;28;20224;-81
2023/06/17 02:55:32;;;;;;;0.10;0.10;;;17.00;99.90;;;;;;5038491;28;20281;-81
2023/06/17 02:57:58;;;;;;;0.10;0.10;;;17.00;99.90;;;;;;5040317;28;20192;-81
2023/06/17 03:00:24;;;;;;;0.10;0.10;;;17.10;99.90;;;;;;5041423;28;20934;-81
2023/06/17 03:02:49;;;;;;;0.10;0.10;;;17.00;99.90;;;;;;5038631;28;20923;-81
2023/06/17 03:05:16;;;;;;;0.10;0.10;;;17.00;99.90;;;;;;5040165;28;20268;-81
2023/06/17 03:07:42;;;;;;;0.10;0.10;;;17.00;99.90;;;;;;5037672;28;20182;-81
2023/06/17 03:10:08;;;;;;;0.10;0.10;;;17.10;99.90;;;;;;5041420;28;20282;-81
2023/06/17 03:12:34;;;;;;;0.10;0.10;;;17.10;99.90;;;;;;5039172;28;20189;-81
2023/06/17 03:15:00;;;;;;;0.10;0.10;;;17.00;99.90;;;;;;5039981;28;20280;-81
2023/06/17 03:17:28;;;;;;;0.10;0.10;;;17.00;99.90;;;;;;5042431;28;20686;-81
2023/06/17 03:19:54;;;;;;;0.10;0.10;;;17.00;99.90;;;;;;5040930;28;20308;-81
2023/06/17 03:22:22;;;;;;;0.10;0.10;;;17.00;99.90;;;;;;5040252;28;20331;-82
2023/06/17 03:24:48;;;;;;;0.10;0.10;;;17.00;99.90;;;;;;5037463;28;20705;-81
2023/06/17 03:27:14;;;;;;;0.10;0.10;;;17.00;99.90;;;;;;5041382;28;20188;-81
2023/06/17 03:29:39;;;;;;;0.10;0.10;;;17.00;99.90;;;;;;5042857;28;20226;-81
2023/06/17 03:32:05;;;;;;;0.10;0.10;;;17.00;99.90;;;;;;5040041;28;20200;-81
2023/06/17 03:34:32;;;;;;;0.10;0.10;;;17.10;99.90;;;;;;5046581;28;20232;-82
2023/06/17 03:36:58;;;;;;;0.10;0.10;;;17.20;99.90;;;;;;5038897;28;20189;-81
2023/06/17 03:39:23;;;;;;;0.10;0.10;;;17.60;99.90;;;;;;5040801;28;20476;-81
2023/06/17 03:41:49;;;;;;;0.10;0.10;;;18.10;99.90;;;;;;5040914;28;20324;-81
2023/06/17 03:44:15;;;;;;;0.10;0.10;;;18.50;99.90;;;;;;5043713;28;20666;-81
2023/06/17 03:46:40;;;;;;;0.10;0.10;;;18.80;99.90;;;;;;5043100;28;20188;-81
2023/06/17 03:49:06;;;;;;;0.10;0.10;;;19.10;99.90;;;;;;5042426;28;20610;-81
2023/06/17 03:51:32;;;;;;;0.10;0.10;;;19.40;99.90;;;;;;5040427;28;20192;-81
2023/06/17 03:53:57;;;;;;;0.10;0.10;;;19.70;99.90;;;;;;5040018;28;20229;-82
2023/06/17 03:56:23;;;;;;;1.33;1.33;;;20.10;99.90;;;;;;5039501;28;21138;-81
2023/06/17 03:58:48;;;;;;;0.10;0.10;;;20.50;99.90;;;;;;5041152;28;20260;-81
2023/06/17 04:01:15;;;;;;;0.10;0.10;;;21.10;99.90;;;;;;5035957;28;20785;-81
2023/06/17 04:03:41;;;;;;;0.10;0.10;;;21.20;99.90;;;;;;5039082;28;20499;-81
2023/06/17 04:06:07;;;;;;;0.10;0.10;;;21.70;99.90;;;;;;5039404;28;20611;-81
2023/06/17 04:08:35;;;;;;;0.10;0.10;;;22.20;99.90;;;;;;5037441;28;20237;-81
2023/06/17 04:11:02;;;;;;;0.10;0.10;;;22.70;99.90;;;;;;5040885;28;20202;-82
2023/06/17 04:13:27;;;;;;;0.10;0.10;;;23.10;99.90;;;;;;5040516;28;20189;-81
2023/06/17 04:15:53;;;;;;;0.10;0.10;;;23.40;99.90;;;;;;5041969;28;20204;-81
2023/06/17 04:18:18;;;;;;;0.20;0.20;;;23.80;99.90;;;;;;5040478;28;20202;-82
2023/06/17 04:20:44;;;;;;;0.10;0.10;;;24.10;99.90;;;;;;5040467;28;20213;-81
2023/06/17 04:23:10;;;;;;;0.10;0.10;;;24.30;99.90;;;;;;5041244;28;20244;-82
2023/06/17 04:25:36;;;;;;;0.10;0.10;;;24.40;99.90;;;;;;5040773;28;20254;-81
2023/06/17 04:28:03;;;;;;;0.10;0.10;;;24.10;99.90;;;;;;5039060;28;20186;-81
2023/06/17 04:30:30;;;;;;;0.10;0.10;;;23.40;99.90;;;;;;5037674;28;20239;-81
2023/06/17 04:33:00;;;;;;;0.10;0.10;;;22.90;99.90;;;;;;5041703;28;20174;-82
2023/06/17 04:35:29;;;;;;;0.10;0.10;;;22.30;99.90;;;;;;5041089;28;20197;-81
2023/06/17 04:37:55;;;;;;;0.10;0.10;;;21.70;99.90;;;;;;5043591;28;20268;-81
2023/06/17 04:40:22;;;;;;;0.10;0.10;;;21.20;99.90;;;;;;5043195;28;20256;-81
2023/06/17 04:42:49;;;;;;;0.10;0.10;;;20.90;99.90;;;;;;5041218;28;20208;-81
2023/06/17 04:45:15;;;;;;;0.10;0.10;;;20.40;99.90;;;;;;5041408;28;20192;-81
2023/06/17 04:47:42;;;;;;;0.10;0.10;;;20.30;99.90;;;;;;5041636;28;20235;-81
2023/06/17 04:50:07;;;;;;;0.10;0.10;;;19.90;99.90;;;;;;5042213;28;20205;-81
2023/06/17 04:52:33;;;;;;;0.10;0.10;;;19.70;99.90;;;;;;5043029;28;20184;-81
2023/06/17 04:54:59;;;;;;;0.10;0.10;;;19.50;99.90;;;;;;5043182;28;20651;-81
2023/06/17 04:57:25;;;;;;;0.10;0.10;;;19.40;99.90;;;;;;5050421;28;20666;-81
2023/06/17 04:59:50;;;;;;;0.10;0.10;;;19.40;99.90;;;;;;5043439;28;20203;-81
2023/06/17 05:02:16;;;;;;;0.10;0.10;;;19.10;99.90;;;;;;5042280;28;20189;-82
2023/06/17 05:04:41;;;;;;;0.10;0.10;;;18.90;99.90;;;;;;5042847;28;20213;-81
2023/06/17 05:07:07;;;;;;;0.10;0.10;;;18.90;99.90;;;;;;5043462;28;20178;-81
2023/06/17 05:09:32;;;;;;;0.10;0.10;;;18.90;99.90;;;;;;5044393;28;20204;-81
2023/06/17 05:11:58;;;;;;;0.10;0.10;;;18.80;99.90;;;;;;5041534;28;20217;-82
2023/06/17 05:14:23;;;;;;;0.10;0.10;;;18.80;99.90;;;;;;5040607;28;20226;-81
2023/06/17 05:16:49;;;;;;;0.10;0.10;;;18.80;99.90;;;;;;5043751;28;20197;-81
2023/06/17 05:19:15;;;;;;;0.10;0.10;;;18.80;99.90;;;;;;5043372;28;20209;-81
2023/06/17 05:21:40;;;;;;;0.10;0.10;;;18.90;99.90;;;;;;5043138;28;20183;-81
2023/06/17 05:24:06;;;;;;;0.10;0.10;;;18.90;99.90;;;;;;5043143;28;20204;-81
2023/06/17 05:26:31;;;;;;;0.10;0.10;;;19.00;99.90;;;;;;5043078;28;20560;-81
2023/06/17 05:28:57;;;;;;;0.10;0.10;;;18.90;99.90;;;;;;5044658;28;20206;-82
2023/06/17 05:31:22;;;;;;;0.10;0.10;;;19.00;99.90;;;;;;5045618;28;20197;-81
2023/06/17 05:33:48;;;;;;;0.10;0.10;;;19.10;99.90;;;;;;5043329;28;20191;-82
2023/06/17 05:36:14;;;;;;;0.10;0.10;;;19.20;99.90;;;;;;5041986;28;20237;-81
2023/06/17 05:38:40;;;;;;;0.10;0.10;;;19.30;99.90;;;;;;5042151;28;20233;-82
2023/06/17 05:41:05;;;;;;;0.10;0.10;;;19.20;99.90;;;;;;5041508;28;20196;-82
2023/06/17 05:43:31;;;;;;;0.10;0.10;;;19.30;99.90;;;;;;5040001;28;20241;-82
2023/06/17 05:45:56;;;;;;;0.10;0.10;;;19.40;99.90;;;;;;5040918;28;20201;-81
2023/06/17 05:48:22;;;;;;;0.10;0.10;;;19.40;99.90;;;;;;5042655;28;20209;-81
2023/06/17 05:50:48;;;;;;;0.10;0.10;;;19.50;99.90;;;;;;5042947;28;20178;-81
2023/06/17 05:53:13;;;;;;;0.10;0.10;;;19.70;99.90;;;;;;5043904;28;20181;-81
2023/06/17 05:55:39;;;;;;;0.10;0.10;;;19.80;99.90;;;;;;5039555;28;20193;-81
2023/06/17 05:58:04;;;;;;;0.10;0.10;;;20.00;99.90;;;;;;5045416;28;20185;-80
2023/06/17 06:00:30;;;;;;;0.10;0.10;;;20.00;99.90;;;;;;5043219;28;20670;-82
2023/06/17 06:02:55;;;;;;;0.10;0.10;;;20.30;99.90;;;;;;5042302;28;20188;-86
2023/06/17 06:05:21;;;;;;;0.10;0.10;;;20.30;99.90;;;;;;5041148;28;20197;-81
2023/06/17 06:07:46;;;;;;;0.10;0.10;;;20.40;99.90;;;;;;5042899;28;20181;-81
2023/06/17 06:10:12;;;;;;;0.10;0.10;;;20.50;99.90;;;;;;5042109;28;20219;-81
2023/06/17 06:12:39;;;;;;;0.10;0.10;;;20.60;99.90;;;;;;5044111;28;20211;-81
2023/06/17 06:15:06;;;;;;;0.10;0.10;;;20.70;99.90;;;;;;5042503;28;20185;-81
2023/06/17 06:17:31;;;;;;;0.10;0.10;;;20.90;99.90;;;;;;5043284;28;20256;-81
2023/06/17 06:19:57;;;;;;;0.10;0.10;;;21.00;99.90;;;;;;5044960;28;20738;-80
2023/06/17 06:22:23;;;;;;;0.10;0.10;;;21.10;99.90;;;;;;5040992;28;20224;-81
2023/06/17 06:24:48;;;;;;;0.10;0.10;;;21.30;99.90;;;;;;5039552;28;20205;-81
2023/06/17 06:27:14;;;;;;;0.10;0.10;;;21.40;99.90;;;;;;5041699;28;20551;-81
2023/06/17 06:29:40;;;;;;;0.10;0.10;;;21.50;99.90;;;;;;5042279;28;20210;-81
2023/06/17 06:32:06;;;;;;;0.10;0.10;;;21.60;99.90;;;;;;5043346;28;20220;-81
2023/06/17 06:34:31;;;;;;;0.10;0.10;;;21.70;99.90;;;;;;5043971;28;20845;-81
2023/06/17 06:36:58;;;;;;;0.10;0.10;;;21.80;99.90;;;;;;5041623;28;20178;-81
2023/06/17 06:39:24;;;;;;;0.10;0.10;;;21.90;99.90;;;;;;5040460;28;20209;-81
2023/06/17 06:41:50;;;;;;;0.10;0.10;;;22.10;99.90;;;;;;5040428;28;20663;-81
2023/06/17 06:44:16;;;;;;;0.10;0.10;;;22.20;99.90;;;;;;5039983;28;20228;-81
2023/06/17 06:46:41;;;;;;;0.10;0.10;;;22.40;99.90;;;;;;5041956;28;20204;-81
2023/06/17 06:49:07;;;;;;;0.10;0.10;;;22.50;99.90;;;;;;5044428;28;20545;-81
2023/06/17 06:51:33;;;;;;;0.10;0.10;;;22.50;99.90;;;;;;5040076;28;20206;-81
2023/06/17 06:53:58;;;;;;;0.10;0.10;;;22.30;99.90;;;;;;5039213;28;20215;-81
2023/06/17 06:56:24;;;;;;;0.10;0.10;;;22.40;99.90;;;;;;5038331;28;20189;-81
2023/06/17 06:58:50;;;;;;;0.10;0.10;;;22.60;99.90;;;;;;5037533;28;21221;-81
2023/06/17 07:01:16;;;;;;;0.10;0.10;;;22.70;99.90;;;;;;5042354;28;20535;-81
2023/06/17 07:03:42;;;;;;;0.10;0.10;;;22.70;99.90;;;;;;5037436;28;20198;-82
2023/06/17 07:06:08;;;;;;;0.10;0.10;;;22.80;99.90;;;;;;5036700;28;20253;-81
2023/06/17 07:08:34;;;;;;;0.10;0.10;;;22.90;99.90;;;;;;5035230;28;20209;-81
2023/06/17 07:10:59;;;;;;;0.10;0.10;;;23.00;99.90;;;;;;5038608;28;20186;-81
2023/06/17 07:13:25;;;;;;;0.10;0.10;;;23.10;99.90;;;;;;5037632;28;20243;-81
2023/06/17 07:15:51;;;;;;;0.10;0.10;;;23.10;99.90;;;;;;5042042;28;20178;-81
2023/06/17 07:18:16;;;;;;;0.10;0.10;;;23.30;99.90;;;;;;5041866;28;20871;-81
2023/06/17 07:20:42;;;;;;;0.10;0.10;;;23.50;99.90;;;;;;5041123;28;20271;-81
2023/06/17 07:23:07;;;;;;;0.10;0.10;;;23.50;99.90;;;;;;5036548;28;20213;-81
2023/06/17 07:25:33;;;;;;;0.10;0.10;;;23.60;99.90;;;;;;5036402;28;20251;-82
2023/06/17 07:28:02;;;;;;;0.10;0.10;;;23.70;99.90;;;;;;5040331;28;20658;-81
2023/06/17 07:30:27;;;;;;;0.10;0.10;;;23.80;99.90;;;;;;5041559;28;20181;-81
2023/06/17 07:32:53;;;;;;;0.10;0.10;;;23.50;99.90;;;;;;5041359;28;20190;-82
2023/06/17 07:35:19;;;;;;;0.10;0.10;;;23.60;99.90;;;;;;5042099;28;20226;-82
2023/06/17 07:37:44;;;;;;;0.10;0.10;;;23.60;99.90;;;;;;5039116;28;20748;-81
2023/06/17 07:40:11;;;;;;;0.10;0.10;;;23.70;99.90;;;;;;5037906;28;20598;-81
2023/06/17 07:42:37;;;;;;;0.10;0.10;;;23.90;99.90;;;;;;5040290;28;20186;-81
2023/06/17 07:45:04;;;;;;;0.10;0.10;;;24.10;99.90;;;;;;5041591;28;20213;-81
2023/06/17 07:47:30;;;;;;;0.10;0.10;;;24.30;99.90;;;;;;5041926;28;20885;-81
2023/06/17 07:49:56;;;;;;;0.10;0.10;;;24.50;99.90;;;;;;5041952;28;20201;-82
2023/06/17 07:52:21;;;;;;;0.10;0.10;;;24.50;99.90;;;;;;5039458;28;20512;-82
2023/06/17 07:54:47;;;;;;;0.10;0.10;;;24.80;99.90;;;;;;5041957;28;20200;-82
2023/06/17 07:57:13;;;;;;;0.10;0.10;;;25.00;99.90;;;;;;5043007;28;20178;-81
2023/06/17 07:59:41;;;;;;;0.10;0.10;;;25.20;99.90;;;;;;5038906;28;20213;-82
2023/06/17 08:02:06;;;;;;;0.10;0.10;;;25.30;99.90;;;;;;5039609;28;20192;-81
2023/06/17 08:04:32;;;;;;;0.10;0.10;;;25.30;99.90;;;;;;5038028;28;20202;-82
2023/06/17 08:06:58;;;;;;;0.10;0.10;;;25.00;99.90;;;;;;5040817;28;20192;-82
2023/06/17 08:09:23;;;;;;;0.10;0.10;;;25.20;99.90;;;;;;5040379;28;20209;-81
2023/06/17 08:11:49;;;;;;;0.10;0.10;;;25.40;99.90;;;;;;5042106;28;20262;-81
2023/06/17 08:14:15;;;;;;;0.10;0.10;;;25.50;99.90;;;;;;5043525;28;20181;-82
2023/06/17 08:16:42;;;;;;;0.10;0.10;;;25.60;99.90;;;;;;5049903;28;20273;-81
2023/06/17 08:19:08;;;;;;;0.10;0.10;;;25.60;99.90;;;;;;5043281;28;20278;-81
2023/06/17 08:21:34;;;;;;;0.10;0.10;;;25.80;99.90;;;;;;5045050;28;20687;-81
2023/06/17 08:24:19;;;;;;;0.10;0.10;;;25.70;99.90;;;;;;5044535;28;20201;-81
2023/06/17 08:26:45;;;;;;;0.10;0.10;;;25.90;99.90;;;;;;5042911;28;20170;-81
2023/06/17 08:29:13;;;;;;;0.10;0.10;;;26.00;99.90;;;;;;5049390;28;20239;-81
2023/06/17 08:31:40;;;;;;;0.10;0.10;;;25.90;99.90;;;;;;5043030;28;20189;-81
2023/06/17 08:34:06;;;;;;;0.10;0.10;;;26.10;99.90;;;;;;5042726;28;20195;-81
2023/06/17 08:36:32;;;;;;;0.10;0.10;;;26.10;99.90;;;;;;5042293;28;20678;-81
2023/06/17 08:38:58;;;;;;;0.10;0.10;;;26.10;99.90;;;;;;5040329;28;20637;-81
2023/06/17 08:41:26;;;;;;;0.10;0.10;;;26.10;99.90;;;;;;5042010;28;20217;-82
2023/06/17 08:43:58;;;;;;;0.10;0.10;;;26.20;99.90;;;;;;5041685;28;20212;-81
2023/06/17 08:46:26;;;;;;;0.10;0.10;;;26.20;99.90;;;;;;5041514;28;20259;-82
2023/06/17 08:48:52;;;;;;;0.17;0.17;;;26.20;99.90;;;;;;5047192;28;20255;-83
2023/06/17 08:51:21;;;;;;;0.10;0.10;;;26.40;99.90;;;;;;5044007;28;20278;-82
2023/06/17 08:53:48;;;;;;;0.10;0.10;;;26.70;99.90;;;;;;5051758;28;20293;-82
2023/06/17 08:56:14;;;;;;;0.10;0.10;;;26.80;99.90;;;;;;5045114;28;20186;-81
2023/06/17 08:58:39;;;;;;;0.10;0.10;;;27.00;99.90;;;;;;5046817;28;20231;-82
2023/06/17 09:01:06;;;;;;;0.10;0.10;;;27.20;99.90;;;;;;5045781;28;20284;-82
2023/06/17 09:03:36;;;;;;;0.10;0.10;;;27.30;99.90;;;;;;5045154;28;20761;-82
2023/06/17 09:06:03;;;;;;;0.10;0.10;;;27.40;99.90;;;;;;5049260;28;20194;-83
2023/06/17 09:08:30;;;;;;;0.10;0.10;;;27.30;99.90;;;;;;5048752;28;20263;-81
2023/06/17 09:11:04;;;;;;;0.10;0.10;;;27.40;99.90;;;;;;5049108;28;20189;-81
2023/06/17 09:13:30;;;;;;;0.10;0.10;;;27.60;99.90;;;;;;5046971;28;20188;-81
2023/06/17 09:15:55;;;;;;;0.10;0.10;;;27.80;99.90;;;;;;5048672;28;20181;-82
2023/06/17 09:18:21;;;;;;;0.10;0.10;;;28.10;99.90;;;;;;5055707;28;20311;-82
2023/06/17 09:20:55;;;;;;;0.10;0.10;;;28.10;99.90;;;;;;5047016;28;20659;-83
2023/06/17 09:23:22;;;;;;;0.10;0.10;;;28.20;99.90;;;;;;5045791;28;20228;-82
2023/06/17 09:25:48;;;;;;;0.10;0.10;;;28.30;99.90;;;;;;5048309;28;20211;-82
2023/06/17 09:28:16;;;;;;;0.10;0.10;;;28.40;99.90;;;;;;5044105;28;20198;-83
2023/06/17 09:30:43;;;;;;;0.10;0.10;;;28.50;99.90;;;;;;5042671;28;20237;-83
2023/06/17 09:33:21;;;;;;;0.10;0.10;;;28.70;99.90;;;;;;5044791;28;20178;-82
2023/06/17 09:35:47;;;;;;;0.10;0.10;;;28.70;99.90;;;;;;5047024;28;20201;-83
2023/06/17 09:38:19;;;;;;;0.10;0.10;;;28.80;99.90;;;;;;5044121;28;20302;-82
2023/06/17 09:40:48;;;;;;;0.10;0.10;;;28.80;99.90;;;;;;5054468;28;20255;-83
2023/06/17 09:43:14;;;;;;;0.10;0.10;;;29.10;99.90;;;;;;5044687;28;20185;-82
2023/06/17 09:45:40;;;;;;;0.10;0.10;;;29.30;99.90;;;;;;5047387;28;20197;-82
2023/06/17 09:48:07;;;;;;;0.10;0.10;;;29.50;99.90;;;;;;5044935;28;20662;-83
2023/06/17 09:50:36;;;;;;;0.10;0.10;;;29.50;99.90;;;;;;5047355;28;20185;-82
2023/06/17 09:53:02;;;;;;;0.10;0.10;;;29.90;99.90;;;;;;5046403;28;20169;-82
2023/06/17 09:55:29;;;;;;;75.53;28.35;;;29.90;99.90;;;;;;5044467;28;20235;-82
2023/06/17 09:57:55;;;;;;;0.10;0.10;;;29.60;99.90;;;;;;5037012;28;20186;-83
2023/06/17 10:00:27;;;;;;;0.10;0.10;;;29.20;99.90;;;;;;5041723;28;20197;-82
2023/06/17 10:02:53;;;;;;;0.10;0.10;;;29.50;99.90;;;;;;5040595;28;20185;-83
2023/06/17 10:05:20;;;;;;;0.10;0.10;;;29.60;99.90;;;;;;5043635;28;20331;-83
2023/06/17 10:07:48;;;;;;;0.10;0.10;;;29.70;99.90;;;;;;5045175;28;20182;-82
2023/06/17 10:10:15;;;;;;;0.10;0.10;;;29.80;99.90;;;;;;5042445;28;20271;-84
2023/06/17 10:12:43;;;;;;;0.10;0.10;;;29.90;99.90;;;;;;5041036;28;20197;-82
2023/06/17 10:15:11;;;;;;;0.10;0.10;;;29.90;99.90;;;;;;5041815;28;20184;-83
2023/06/17 10:17:39;;;;;;;0.10;0.10;;;29.90;99.90;;;;;;5044096;28;20181;-81
2023/06/17 10:20:08;;;;;;;0.10;0.10;;;29.40;99.90;;;;;;5043519;28;20259;-83
2023/06/17 10:22:37;;;;;;;0.10;0.10;;;28.90;99.90;;;;;;5042461;28;20677;-82
2023/06/17 10:25:04;;;;;;;0.10;0.10;;;28.50;99.90;;;;;;5042415;28;20201;-83
2023/06/17 10:27:31;;;;;;;0.10;0.10;;;28.70;99.90;;;;;;5039511;28;20284;-81
2023/06/17 10:29:58;;;;;;;0.10;0.10;;;28.90;99.90;;;;;;5041691;28;20215;-82
2023/06/17 10:32:24;;;;;;;0.10;0.10;;;28.90;99.90;;;;;;5042102;28;20181;-82
2023/06/17 10:35:05;;;;;;;0.10;0.10;;;28.60;99.90;;;;;;5041290;28;20662;-82
2023/06/17 10:37:31;;;;;;;0.10;0.10;;;28.30;99.90;;;;;;5041491;28;20197;-83
2023/06/17 10:40:21;;;;;;;0.10;0.10;;;28.10;99.90;;;;;;5041580;28;20292;-82
2023/06/17 10:43:15;;;;;;;0.10;0.10;;;27.90;99.90;;;;;;5040616;28;21060;-82
2023/06/17 10:45:55;;;;;;;0.10;0.10;;;27.90;99.90;;;;;;5038976;28;20177;-81
2023/06/17 10:48:27;;;;;;;0.10;0.10;;;28.00;99.90;;;;;;5044408;28;20293;-81
2023/06/17 10:50:56;;;;;;;0.10;0.10;;;28.10;99.90;;;;;;5045814;28;20197;-80
2023/06/17 10:53:28;;;;;;;0.10;0.10;;;28.60;99.90;;;;;;5042511;28;20586;-80
2023/06/17 10:55:54;;;;;;;0.10;0.10;;;29.00;99.90;;;;;;5034317;28;20177;-81
2023/06/17 10:58:19;;;;;;;0.10;0.10;;;29.30;99.90;;;;;;5041444;28;20268;-81
2023/06/17 11:00:45;;;;;;;0.10;0.10;;;29.10;99.90;;;;;;5041199;28;20655;-82
2023/06/17 11:03:15;;;;;;;0.10;0.10;;;29.10;99.90;;;;;;5043723;28;20178;-81
2023/06/17 11:05:40;;;;;;;0.10;0.10;;;29.60;99.90;;;;;;5043094;28;20190;-81
2023/06/17 11:08:06;;;;;;;0.10;0.10;;;29.70;99.90;;;;;;5043878;28;20203;-81
2023/06/17 11:10:32;;;;;;;0.10;0.10;;;29.20;99.90;;;;;;5041497;28;20230;-80
2023/06/17 11:12:57;;;;;;;0.10;0.10;;;29.10;99.90;;;;;;5050018;28;21234;-81
2023/06/17 11:15:23;;;;;;;0.10;0.10;;;28.70;99.90;;;;;;5042013;28;20208;-82
2023/06/17 11:18:02;;;;;;;0.10;0.10;;;28.60;99.90;;;;;;5042013;28;20189;-81
2023/06/17 11:20:34;;;;;;;0.10;0.10;;;28.40;99.90;;;;;;5041222;28;20182;-80
2023/06/17 11:23:02;;;;;;;0.10;0.10;;;28.40;99.90;;;;;;5040823;28;20181;-80
2023/06/17 11:25:28;;;;;;;0.10;0.10;;;28.90;99.90;;;;;;5040343;28;20301;-81
2023/06/17 11:27:54;;;;;;;0.10;0.10;;;29.50;99.90;;;;;;5049387;28;20188;-81
2023/06/17 11:30:20;;;;;;;0.10;0.10;;;29.80;99.90;;;;;;5043264;28;20182;-81
2023/06/17 11:32:48;;;;;;;0.10;0.10;;;29.80;99.90;;;;;;5041773;28;20562;-80
2023/06/17 11:35:13;;;;;;;0.10;0.10;;;29.90;99.90;;;;;;5039249;28;20190;-82
2023/06/17 11:37:40;;;;;;;0.10;0.10;;;30.00;99.90;;;;;;5042392;28;20212;-82
2023/06/17 11:40:09;;;;;;;0.10;0.10;;;29.80;99.90;;;;;;5038225;28;21189;-81
2023/06/17 11:42:36;;;;;;;0.10;0.10;;;29.70;99.90;;;;;;5037842;28;20197;-81
2023/06/17 11:45:01;;;;;;;0.10;0.10;;;29.50;99.90;;;;;;5040294;28;20214;-82
2023/06/17 11:47:35;;;;;;;0.10;0.10;;;29.20;99.90;;;;;;5045603;28;20790;-81
2023/06/17 11:50:00;;;;;;;0.10;0.10;;;28.50;99.90;;;;;;5046581;28;21063;-82
2023/06/17 11:52:26;;;;;;;0.10;0.10;;;28.70;99.90;;;;;;5043100;28;20189;-81
2023/06/17 11:54:55;;;;;;;0.10;0.10;;;29.20;99.90;;;;;;5043873;28;20723;-81
2023/06/17 11:57:22;;;;;;;0.10;0.10;;;29.60;99.90;;;;;;5044409;28;20185;-82
2023/06/17 11:59:48;;;;;;;0.10;0.10;;;29.80;99.90;;;;;;5043940;28;20212;-82
2023/06/17 12:02:15;;;;;;;0.10;0.10;;;29.50;99.90;;;;;;5050943;28;20562;-81
2023/06/17 12:04:47;;;;;;;0.10;0.10;;;29.30;99.90;;;;;;5043241;28;20988;-81
2023/06/17 12:07:13;;;;;;;0.10;0.10;;;29.10;99.90;;;;;;5044569;28;20646;-82
2023/06/17 12:09:53;;;;;;;0.10;0.10;;;29.10;99.90;;;;;;5044591;28;20209;-83
2023/06/17 12:12:29;;;;;;;0.10;0.10;;;29.50;99.90;;;;;;5042882;28;20232;-82
2023/06/17 12:15:06;;;;;;;0.10;0.10;;;28.90;99.90;;;;;;5033390;28;20513;-81
2023/06/17 12:17:44;;;;;;;0.10;0.10;;;28.40;99.90;;;;;;5041884;28;20205;-80
2023/06/17 12:20:19;;;;;;;0.10;0.10;;;28.40;99.90;;;;;;5039921;28;20210;-80
2023/06/17 12:22:45;;;;;;;0.10;0.10;;;28.60;99.90;;;;;;5039174;28;20189;-82
2023/06/17 12:25:11;;;;;;;0.10;0.10;;;28.70;99.90;;;;;;5037603;28;20504;-80
2023/06/17 12:27:37;;;;;;;0.10;0.10;;;28.70;99.90;;;;;;5044333;28;20265;-81
2023/06/17 12:30:06;;;;;;;0.10;0.10;;;28.80;99.90;;;;;;5040701;28;20585;-82
2023/06/17 12:32:31;;;;;;;0.10;0.10;;;28.80;99.90;;;;;;5042403;28;20281;-82
2023/06/17 12:34:58;;;;;;;0.10;0.10;;;28.70;99.90;;;;;;5044924;28;20304;-82
2023/06/17 12:37:28;;;;;;;0.10;0.10;;;29.00;99.90;;;;;;5044177;28;20227;-81
2023/06/17 12:39:57;;;;;;;0.10;0.10;;;29.30;99.90;;;;;;5045479;28;20217;-80
2023/06/17 12:42:23;;;;;;;0.10;0.10;;;29.20;99.90;;;;;;5045389;28;20640;-83
2023/06/17 12:44:50;;;;;;;0.10;0.10;;;29.00;99.90;;;;;;5042912;28;20209;-80
2023/06/17 12:47:18;;;;;;;0.10;0.10;;;29.20;99.90;;;;;;5043425;28;20198;-82